createdAt,value
2018-06-16T00:01:53.634Z,20.00
2018-06-16T00:04:21.775Z,19.90
2018-06-16T00:06:49.961Z,19.90
2018-06-16T00:09:18.088Z,19.90
2018-06-16T00:11:46.234Z,19.90
2018-06-16T00:14:14.369Z,19.90
2018-06-16T00:16:42.536Z,19.90
2018-06-16T00:19:10.728Z,19.90
2018-06-16T00:21:39.250Z,19.80
2018-06-16T00:24:07.364Z,19.80
2018-06-16T00:26:35.536Z,19.80
2018-06-16T00:29:03.903Z,19.80
2018-06-16T00:31:32.125Z,19.80
2018-06-16T00:34:00.381Z,19.80
2018-06-16T00:36:28.536Z,19.80
2018-06-16T00:38:56.709Z,19.80
2018-06-16T00:41:24.884Z,19.80
2018-06-16T00:43:53.305Z,19.80
2018-06-16T00:46:21.588Z,19.80
2018-06-16T00:48:49.741Z,19.80
2018-06-16T00:51:17.921Z,19.70
2018-06-16T00:53:46.089Z,19.70
2018-06-16T00:56:14.359Z,19.70
2018-06-16T00:58:42.487Z,19.70
2018-06-16T01:01:10.897Z,19.60
2018-06-16T01:03:39.083Z,19.60
2018-06-16T01:06:07.547Z,19.60
2018-06-16T01:08:35.747Z,19.60
2018-06-16T01:11:03.987Z,19.60
2018-06-16T01:13:32.266Z,19.60
2018-06-16T01:16:00.361Z,19.60
2018-06-16T01:18:28.813Z,19.60
2018-06-16T01:20:57.026Z,19.60
2018-06-16T01:23:25.159Z,19.60
2018-06-16T01:25:53.458Z,19.60
2018-06-16T01:28:21.938Z,19.50
2018-06-16T01:30:50.412Z,19.50
2018-06-16T01:33:19.212Z,19.50
2018-06-16T01:35:47.381Z,19.50
2018-06-16T01:38:15.592Z,19.50
2018-06-16T01:40:43.762Z,19.40
2018-06-16T01:43:12.076Z,19.40
2018-06-16T01:45:40.231Z,19.40
2018-06-16T01:48:08.400Z,19.40
2018-06-16T01:50:36.538Z,19.40
2018-06-16T01:53:04.744Z,19.40
2018-06-16T01:55:32.906Z,19.40
2018-06-16T01:58:01.433Z,19.30
2018-06-16T02:00:29.579Z,19.30
2018-06-16T02:02:57.753Z,19.30
2018-06-16T02:05:26.110Z,19.30
2018-06-16T02:07:54.515Z,19.30
2018-06-16T02:10:22.626Z,19.30
2018-06-16T02:12:50.752Z,19.30
2018-06-16T02:15:18.880Z,19.20
2018-06-16T02:17:47.004Z,19.20
2018-06-16T02:20:15.123Z,19.20
2018-06-16T02:22:43.347Z,19.20
2018-06-16T02:25:11.531Z,19.20
2018-06-16T02:27:39.627Z,19.20
2018-06-16T02:30:07.815Z,19.20
2018-06-16T02:32:35.999Z,19.20
2018-06-16T02:35:04.277Z,19.20
2018-06-16T02:37:32.461Z,19.20
2018-06-16T02:40:00.623Z,19.20
2018-06-16T02:42:28.789Z,19.20
2018-06-16T02:44:56.959Z,19.10
2018-06-16T02:47:25.071Z,19.20
2018-06-16T02:49:53.225Z,19.20
2018-06-16T02:52:21.323Z,19.20
2018-06-16T02:54:49.471Z,19.10
2018-06-16T02:57:17.584Z,19.10
2018-06-16T02:59:45.728Z,19.00
2018-06-16T03:02:13.960Z,19.00
2018-06-16T03:04:42.337Z,19.00
2018-06-16T03:07:10.477Z,18.90
2018-06-16T03:09:38.903Z,18.90
2018-06-16T03:12:07.098Z,18.90
2018-06-16T03:14:35.335Z,18.90
2018-06-16T03:17:03.480Z,18.90
2018-06-16T03:19:31.752Z,18.90
2018-06-16T03:21:59.901Z,19.00
2018-06-16T03:24:28.073Z,18.90
2018-06-16T03:26:56.326Z,18.90
2018-06-16T03:31:52.483Z,19.00
2018-06-16T03:34:20.615Z,19.00
2018-06-16T03:36:48.756Z,19.00
2018-06-16T03:39:16.889Z,19.00
2018-06-16T03:41:45.001Z,19.00
2018-06-16T03:44:13.276Z,19.00
2018-06-16T03:46:41.493Z,19.00
2018-06-16T03:49:09.807Z,19.10
2018-06-16T03:51:38.064Z,19.10
2018-06-16T03:56:34.177Z,19.10
2018-06-16T03:59:02.346Z,19.10
2018-06-16T04:01:30.444Z,19.10
2018-06-16T04:03:58.590Z,19.10
2018-06-16T04:06:26.892Z,19.20
2018-06-16T04:11:23.046Z,19.20
2018-06-16T04:13:51.155Z,19.20
2018-06-16T04:16:19.528Z,19.30
2018-06-16T04:18:47.668Z,19.30
2018-06-16T04:21:15.921Z,19.30
2018-06-16T04:26:18.683Z,19.30
2018-06-16T04:28:46.829Z,19.30
2018-06-16T04:31:14.953Z,19.30
2018-06-16T04:33:43.148Z,19.40
2018-06-16T04:36:11.414Z,19.40
2018-06-16T04:38:39.570Z,19.40
2018-06-16T04:41:07.914Z,19.50
2018-06-16T04:43:36.160Z,19.50
2018-06-16T04:46:04.433Z,19.50
2018-06-16T04:48:32.576Z,19.50
2018-06-16T04:51:00.911Z,19.60
2018-06-16T04:53:29.067Z,19.60
2018-06-16T04:55:57.268Z,19.60
2018-06-16T04:58:25.501Z,19.60
2018-06-16T05:00:53.701Z,19.60
2018-06-16T05:03:22.256Z,19.70
2018-06-16T05:05:50.436Z,19.70
2018-06-16T05:08:18.581Z,19.70
2018-06-16T05:10:47.531Z,19.80
2018-06-16T05:13:15.701Z,19.80
2018-06-16T05:15:44.508Z,19.80
2018-06-16T05:18:12.661Z,19.90
2018-06-16T05:20:40.771Z,19.90
2018-06-16T05:23:08.970Z,20.00
2018-06-16T05:25:37.446Z,20.00
2018-06-16T05:28:05.674Z,20.00
2018-06-16T05:30:33.773Z,20.10
2018-06-16T05:33:02.215Z,20.10
2018-06-16T05:35:30.316Z,20.10
2018-06-16T05:37:58.665Z,20.20
2018-06-16T05:40:26.764Z,20.30
2018-06-16T05:42:54.907Z,20.30
2018-06-16T05:45:23.074Z,20.40
2018-06-16T05:47:51.300Z,20.40
2018-06-16T05:50:19.509Z,20.50
2018-06-16T05:55:16.392Z,20.50
2018-06-16T05:57:44.595Z,20.50
2018-06-16T06:00:12.728Z,20.50
2018-06-16T06:02:40.991Z,20.50
2018-06-16T06:05:09.186Z,20.50
2018-06-16T06:07:37.307Z,20.60
2018-06-16T06:10:05.700Z,20.60
2018-06-16T06:12:34.023Z,20.60
2018-06-16T06:15:02.321Z,20.60
2018-06-16T06:17:30.435Z,20.60
2018-06-16T06:19:58.592Z,20.60
2018-06-16T06:22:26.695Z,20.60
2018-06-16T06:24:54.839Z,20.70
2018-06-16T06:27:22.933Z,20.70
2018-06-16T06:29:51.064Z,20.70
2018-06-16T06:32:19.252Z,20.70
2018-06-16T06:34:47.379Z,20.80
2018-06-16T06:39:43.512Z,20.90
2018-06-16T06:42:11.788Z,21.00
2018-06-16T06:44:40.013Z,21.10
2018-06-16T06:49:36.517Z,21.20
2018-06-16T06:52:04.779Z,21.20
2018-06-16T06:57:00.964Z,21.40
2018-06-16T06:59:29.138Z,21.40
2018-06-16T07:01:57.333Z,21.40
2018-06-16T07:04:25.547Z,21.40
2018-06-16T07:06:53.753Z,21.50
2018-06-16T07:09:21.962Z,21.50
2018-06-16T07:11:50.172Z,21.60
2018-06-16T07:14:18.373Z,21.70
2018-06-16T07:16:46.510Z,21.70
2018-06-16T07:19:14.833Z,21.70
2018-06-16T07:21:42.939Z,21.70
2018-06-16T07:24:11.088Z,21.80
2018-06-16T07:26:39.237Z,21.80
2018-06-16T07:29:07.355Z,21.90
2018-06-16T07:31:35.671Z,21.90
2018-06-16T07:34:03.975Z,21.90
2018-06-16T07:36:32.299Z,22.00
2018-06-16T07:39:00.590Z,22.00
2018-06-16T07:41:28.789Z,22.10
2018-06-16T07:43:56.877Z,22.10
2018-06-16T07:46:25.182Z,22.10
2018-06-16T07:48:53.814Z,22.10
2018-06-16T07:51:21.918Z,22.10
2018-06-16T07:56:18.202Z,22.30
2018-06-16T07:58:46.379Z,22.40
2018-06-16T08:01:14.682Z,22.40
2018-06-16T08:03:43.067Z,22.50
2018-06-16T08:06:11.223Z,22.60
2018-06-16T08:08:39.426Z,22.60
2018-06-16T08:11:08.479Z,22.60
2018-06-16T08:13:36.784Z,22.70
2018-06-16T08:16:05.666Z,22.80
2018-06-16T08:18:33.846Z,22.90
2018-06-16T08:23:31.052Z,23.00
2018-06-16T08:25:59.228Z,23.10
2018-06-16T08:28:27.605Z,23.20
2018-06-16T08:30:55.778Z,23.30
2018-06-16T08:33:24.026Z,23.40
2018-06-16T08:35:52.240Z,23.40
2018-06-16T08:38:20.572Z,23.40
2018-06-16T08:40:48.800Z,23.50
2018-06-16T08:43:17.075Z,23.60
2018-06-16T08:45:45.291Z,23.70
2018-06-16T08:48:13.467Z,23.80
2018-06-16T08:50:41.768Z,23.80
2018-06-16T08:53:09.957Z,24.00
2018-06-16T08:55:38.269Z,24.10
2018-06-16T08:58:06.576Z,24.10
2018-06-16T09:00:34.828Z,24.10
2018-06-16T09:03:02.971Z,24.10
2018-06-16T09:05:31.209Z,24.10
2018-06-16T09:07:59.543Z,24.20
2018-06-16T09:10:27.715Z,24.20
2018-06-16T09:12:56.088Z,24.30
2018-06-16T09:15:24.259Z,24.40
2018-06-16T09:17:52.528Z,24.40
2018-06-16T09:20:21.201Z,24.50
2018-06-16T09:22:49.479Z,24.50
2018-06-16T09:25:17.660Z,24.60
2018-06-16T09:27:45.796Z,24.70
2018-06-16T09:30:14.151Z,24.80
2018-06-16T09:32:42.392Z,24.90
2018-06-16T09:35:10.558Z,25.00
2018-06-16T09:37:39.168Z,25.10
2018-06-16T09:40:07.340Z,25.20
2018-06-16T09:42:35.901Z,25.20
2018-06-16T09:45:04.300Z,25.20
2018-06-16T09:47:32.455Z,25.20
2018-06-16T09:52:28.787Z,25.40
2018-06-16T09:54:57.084Z,25.50
2018-06-16T09:57:25.230Z,25.50
2018-06-16T09:59:53.608Z,25.50
2018-06-16T10:02:21.837Z,25.70
2018-06-16T10:04:50.033Z,25.90
2018-06-16T10:07:18.268Z,26.20
2018-06-16T10:09:46.472Z,26.30
2018-06-16T10:12:14.565Z,26.60
2018-06-16T10:14:42.712Z,26.80
2018-06-16T10:17:10.891Z,27.00
2018-06-16T10:19:39.663Z,27.20
2018-06-16T10:22:07.913Z,27.00
2018-06-16T10:24:36.352Z,26.90
2018-06-16T10:27:04.511Z,26.70
2018-06-16T10:29:32.831Z,26.60
2018-06-16T10:32:01.016Z,26.40
2018-06-16T10:34:29.179Z,26.30
2018-06-16T10:36:57.336Z,26.30
2018-06-16T10:39:25.457Z,26.20
2018-06-16T10:41:53.717Z,26.10
2018-06-16T10:44:21.829Z,26.20
2018-06-16T10:46:50.038Z,26.10
2018-06-16T10:49:18.175Z,26.10
2018-06-16T10:51:46.332Z,26.20
2018-06-16T10:54:14.464Z,26.30
2018-06-16T10:56:42.633Z,26.30
2018-06-16T10:59:10.945Z,26.30
2018-06-16T11:01:39.126Z,26.30
2018-06-16T11:04:07.535Z,26.30
2018-06-16T11:06:35.747Z,26.20
2018-06-16T11:09:05.705Z,26.10
2018-06-16T11:11:33.938Z,26.10
2018-06-16T11:14:02.120Z,26.20
2018-06-16T11:16:30.971Z,26.20
2018-06-16T11:18:59.230Z,26.20
2018-06-16T11:21:27.450Z,26.20
2018-06-16T11:23:55.655Z,26.10
2018-06-16T11:26:24.313Z,26.10
2018-06-16T11:28:52.868Z,26.10
2018-06-16T11:31:20.997Z,26.20
2018-06-16T11:33:50.229Z,26.30
2018-06-16T11:36:18.370Z,26.30
2018-06-16T11:38:46.535Z,26.50
2018-06-16T11:41:14.683Z,26.60
2018-06-16T11:43:42.924Z,26.60
2018-06-16T11:46:11.124Z,26.60
2018-06-16T11:48:39.566Z,26.60
2018-06-16T11:51:07.683Z,26.60
2018-06-16T11:53:36.133Z,26.70
2018-06-16T11:58:32.562Z,26.90
2018-06-16T12:01:00.832Z,27.10
2018-06-16T12:03:29.145Z,27.10
2018-06-16T12:05:57.296Z,27.10
2018-06-16T12:08:25.438Z,27.10
2018-06-16T12:13:21.566Z,27.00
2018-06-16T12:15:49.763Z,26.90
2018-06-16T12:18:18.063Z,26.90
2018-06-16T12:20:46.197Z,26.80
2018-06-16T12:23:14.406Z,26.80
2018-06-16T12:25:42.545Z,26.70
2018-06-16T12:28:10.751Z,26.60
2018-06-16T12:30:38.912Z,26.60
2018-06-16T12:35:35.249Z,26.60
2018-06-16T12:38:03.912Z,26.50
2018-06-16T12:40:32.106Z,26.40
2018-06-16T12:43:00.337Z,26.40
2018-06-16T12:45:28.551Z,26.50
2018-06-16T12:52:54.973Z,26.60
2018-06-16T12:55:23.207Z,26.60
2018-06-16T12:57:51.408Z,26.60
2018-06-16T13:00:19.626Z,26.70
2018-06-16T13:02:47.833Z,26.80
2018-06-16T13:05:16.003Z,26.90
2018-06-16T13:07:44.383Z,27.00
2018-06-16T13:10:12.599Z,27.00
2018-06-16T13:12:40.798Z,27.10
2018-06-16T13:15:09.123Z,27.20
2018-06-16T13:17:38.292Z,27.30
2018-06-16T13:20:06.608Z,27.50
2018-06-16T13:22:34.852Z,27.60
2018-06-16T13:25:03.104Z,27.70
2018-06-16T13:29:59.625Z,28.30
2018-06-16T13:32:27.932Z,28.50
2018-06-16T13:34:56.169Z,28.80
2018-06-16T13:37:24.311Z,29.00
2018-06-16T13:39:52.552Z,28.90
2018-06-16T13:42:20.814Z,28.70
2018-06-16T13:44:49.024Z,28.50
2018-06-16T13:47:18.103Z,28.30
2018-06-16T13:49:46.523Z,28.10
2018-06-16T13:52:14.904Z,28.00
2018-06-16T13:54:43.409Z,28.00
2018-06-16T13:57:11.701Z,28.10
2018-06-16T13:59:40.571Z,28.40
2018-06-16T14:02:08.783Z,28.50
2018-06-16T14:04:37.398Z,28.70
2018-06-16T14:07:06.271Z,28.50
2018-06-16T14:09:34.567Z,28.40
2018-06-16T14:12:03.303Z,28.20
2018-06-16T14:14:31.665Z,28.10
2018-06-16T14:16:59.906Z,27.80
2018-06-16T14:19:28.344Z,27.60
2018-06-16T14:21:56.556Z,27.60
2018-06-16T14:24:24.763Z,27.70
2018-06-16T14:26:53.326Z,27.70
2018-06-16T14:29:21.536Z,27.70
2018-06-16T14:31:49.785Z,27.70
2018-06-16T14:34:18.125Z,27.60
2018-06-16T14:36:46.507Z,27.50
2018-06-16T14:39:14.785Z,27.50
2018-06-16T14:41:43.093Z,27.50
2018-06-16T14:44:11.302Z,27.50
2018-06-16T14:46:39.505Z,27.50
2018-06-16T14:51:36.907Z,27.50
2018-06-16T14:54:05.249Z,27.30
2018-06-16T14:56:33.531Z,27.30
2018-06-16T14:59:01.898Z,27.30
2018-06-16T15:01:30.055Z,27.30
2018-06-16T15:06:26.119Z,27.40
2018-06-16T15:08:54.266Z,27.40
2018-06-16T15:11:22.653Z,27.50
2018-06-16T15:13:50.855Z,27.50
2018-06-16T15:16:19.029Z,27.60
2018-06-16T15:18:47.198Z,27.70
2018-06-16T15:21:15.353Z,27.70
2018-06-16T15:23:43.691Z,27.70
2018-06-16T15:26:11.857Z,27.70
2018-06-16T15:28:40.016Z,27.80
2018-06-16T15:31:08.461Z,27.90
2018-06-16T15:33:36.769Z,27.90
2018-06-16T15:36:05.131Z,27.90
2018-06-16T15:38:33.332Z,27.90
2018-06-16T15:41:01.524Z,27.90
2018-06-16T15:45:57.992Z,28.00
2018-06-16T15:48:26.277Z,28.10
2018-06-16T15:50:54.496Z,28.10
2018-06-16T15:53:22.795Z,28.10
2018-06-16T15:55:50.987Z,28.10
2018-06-16T15:58:19.264Z,28.00
2018-06-16T16:00:47.428Z,28.00
2018-06-16T16:05:43.575Z,28.00
2018-06-16T16:08:11.642Z,27.90
2018-06-16T16:10:39.807Z,27.90
2018-06-16T16:13:08.310Z,27.80
2018-06-16T16:15:36.568Z,27.80
2018-06-16T16:18:04.757Z,27.70
2018-06-16T16:20:32.906Z,27.60
2018-06-16T16:23:01.738Z,27.60
2018-06-16T16:25:29.915Z,27.60
2018-06-16T16:27:58.120Z,27.60
2018-06-16T16:30:26.332Z,27.50
2018-06-16T16:32:54.519Z,27.50
2018-06-16T16:35:22.810Z,27.40
2018-06-16T16:37:51.244Z,27.40
2018-06-16T16:40:19.625Z,27.40
2018-06-16T16:42:47.754Z,27.30
2018-06-16T16:45:16.010Z,27.30
2018-06-16T16:47:44.352Z,27.30
2018-06-16T16:50:12.492Z,27.20
2018-06-16T16:52:40.692Z,27.10
2018-06-16T16:56:12.537Z,27.00
2018-06-16T16:58:40.659Z,27.00
2018-06-16T17:01:08.865Z,26.90
2018-06-16T17:06:06.382Z,26.80
2018-06-16T17:08:34.800Z,26.90
2018-06-16T17:11:03.344Z,26.80
2018-06-16T17:13:31.940Z,26.80
2018-06-16T17:16:00.167Z,26.80
2018-06-16T17:18:28.550Z,26.80
2018-06-16T17:20:56.676Z,26.80
2018-06-16T17:23:24.842Z,26.80
2018-06-16T17:25:53.054Z,26.70
2018-06-16T17:28:21.482Z,26.70
2018-06-16T17:30:50.341Z,26.70
2018-06-16T17:33:18.509Z,26.60
2018-06-16T17:35:46.770Z,26.60
2018-06-16T17:38:14.901Z,26.60
2018-06-16T17:40:43.101Z,26.50
2018-06-16T17:43:11.373Z,26.50
2018-06-16T17:45:39.791Z,26.50
2018-06-16T17:48:07.959Z,26.40
2018-06-16T17:50:36.855Z,26.40
2018-06-16T17:53:05.036Z,26.30
2018-06-16T17:55:33.343Z,26.30
2018-06-16T17:58:01.575Z,26.30
2018-06-16T18:00:29.769Z,26.20
2018-06-16T18:02:58.009Z,26.20
2018-06-16T18:05:26.442Z,26.20
2018-06-16T18:07:54.657Z,26.20
2018-06-16T18:10:22.866Z,26.10
2018-06-16T18:12:51.059Z,26.10
2018-06-16T18:15:19.334Z,26.10
2018-06-16T18:17:47.618Z,26.00
2018-06-16T18:22:43.780Z,26.00
2018-06-16T18:25:11.984Z,25.90
2018-06-16T18:27:40.366Z,25.90
2018-06-16T18:30:08.582Z,25.90
2018-06-16T18:32:36.850Z,25.90
2018-06-16T18:35:05.379Z,25.90
2018-06-16T18:37:33.589Z,25.90
2018-06-16T18:40:01.879Z,25.80
2018-06-16T18:42:30.046Z,25.80
2018-06-16T18:44:58.229Z,25.80
2018-06-16T18:47:26.548Z,25.70
2018-06-16T18:49:54.757Z,25.70
2018-06-16T18:52:22.879Z,25.70
2018-06-16T18:54:51.085Z,25.70
2018-06-16T18:57:19.372Z,25.70
2018-06-16T18:59:47.571Z,25.70
2018-06-16T19:02:15.872Z,25.70
2018-06-16T19:04:44.080Z,25.70
2018-06-16T19:07:12.484Z,25.60
2018-06-16T19:09:40.674Z,25.60
2018-06-16T19:12:09.013Z,25.60
2018-06-16T19:14:37.150Z,25.50
2018-06-16T19:17:05.513Z,25.50
2018-06-16T19:19:33.787Z,25.50
2018-06-16T19:22:02.051Z,25.50
2018-06-16T19:24:30.265Z,25.40
2018-06-16T19:26:58.625Z,25.40
2018-06-16T19:29:26.897Z,25.40
2018-06-16T19:31:55.768Z,25.40
2018-06-16T19:34:24.372Z,25.40
2018-06-16T19:36:53.107Z,25.30
2018-06-16T19:39:21.407Z,25.30
2018-06-16T19:41:49.876Z,25.30
2018-06-16T19:44:18.055Z,25.20
2018-06-16T19:49:14.350Z,25.10
2018-06-16T19:51:42.612Z,25.10
2018-06-16T19:54:10.816Z,25.10
2018-06-16T19:56:39.186Z,25.00
2018-06-16T19:59:07.533Z,25.00
2018-06-16T20:01:35.901Z,24.90
2018-06-16T20:04:04.423Z,24.90
2018-06-16T20:06:32.712Z,24.90
2018-06-16T20:09:00.922Z,24.80
2018-06-16T20:11:29.210Z,24.80
2018-06-16T20:13:57.583Z,24.80
2018-06-16T20:16:25.835Z,24.80
2018-06-16T20:18:54.786Z,24.70
2018-06-16T20:21:23.755Z,24.70
2018-06-16T20:23:52.372Z,24.60
2018-06-16T20:26:20.672Z,24.60
2018-06-16T20:28:48.887Z,24.60
2018-06-16T20:31:17.084Z,24.50
2018-06-16T20:36:13.673Z,24.40
2018-06-16T20:38:41.884Z,24.40
2018-06-16T20:41:10.103Z,24.40
2018-06-16T20:43:38.866Z,24.30
2018-06-16T20:46:07.085Z,24.30
2018-06-16T20:48:35.526Z,24.20
2018-06-16T20:51:04.074Z,24.10
2018-06-16T20:53:32.795Z,24.10
2018-06-16T20:58:29.239Z,24.00
2018-06-16T21:00:57.590Z,23.90
2018-06-16T21:03:25.907Z,23.90
2018-06-16T21:05:54.191Z,23.90
2018-06-16T21:08:22.352Z,23.80
2018-06-16T21:10:50.707Z,23.80
2018-06-16T21:13:18.896Z,23.70
2018-06-16T21:15:47.033Z,23.70
2018-06-16T21:18:15.250Z,23.60
2018-06-16T21:20:43.398Z,23.60
2018-06-16T21:23:11.665Z,23.50
2018-06-16T21:25:39.836Z,23.50
2018-06-16T21:28:08.108Z,23.40
2018-06-16T21:30:36.468Z,23.30
2018-06-16T21:33:04.832Z,23.30
2018-06-16T21:35:33.153Z,23.30
2018-06-16T21:38:01.406Z,23.30
2018-06-16T21:40:29.681Z,23.20
2018-06-16T21:45:26.701Z,23.20
2018-06-16T21:47:55.487Z,23.20
2018-06-16T21:50:23.664Z,23.10
2018-06-16T21:52:51.795Z,23.10
2018-06-16T21:55:20.101Z,23.10
2018-06-16T21:57:48.331Z,23.10
2018-06-16T22:00:16.505Z,23.00
2018-06-16T22:02:44.787Z,23.00
2018-06-16T22:07:41.107Z,22.90
2018-06-16T22:10:10.485Z,22.90
2018-06-16T22:12:39.123Z,22.90
2018-06-16T22:15:07.399Z,22.80
2018-06-16T22:17:35.641Z,22.80
2018-06-16T22:20:04.372Z,22.80
2018-06-16T22:22:32.564Z,22.80
2018-06-16T22:25:00.708Z,22.80
2018-06-16T22:27:28.948Z,22.70
2018-06-16T22:29:57.315Z,22.80
2018-06-16T22:32:25.487Z,22.70
2018-06-16T22:34:53.914Z,22.70
2018-06-16T22:37:22.127Z,22.70
2018-06-16T22:39:50.380Z,22.70
2018-06-16T22:42:18.564Z,22.70
2018-06-16T22:44:46.687Z,22.70
2018-06-16T22:47:15.108Z,22.70
2018-06-16T22:49:43.241Z,22.70
2018-06-16T22:52:11.431Z,22.70
2018-06-16T22:54:39.639Z,22.70
2018-06-16T22:57:07.924Z,22.60
2018-06-16T22:59:36.083Z,22.60
2018-06-16T23:02:04.305Z,22.60
2018-06-16T23:04:32.935Z,22.60
2018-06-16T23:07:01.233Z,22.60
2018-06-16T23:09:29.463Z,22.60
2018-06-16T23:11:57.596Z,22.50
2018-06-16T23:14:25.946Z,22.50
2018-06-16T23:16:54.107Z,22.50
2018-06-16T23:19:22.505Z,22.50
2018-06-16T23:21:50.631Z,22.50
2018-06-16T23:24:18.843Z,22.50
2018-06-16T23:26:47.051Z,22.50
2018-06-16T23:29:15.387Z,22.50
2018-06-16T23:31:43.912Z,22.40
2018-06-16T23:34:12.035Z,22.40
2018-06-16T23:36:40.247Z,22.40
2018-06-16T23:39:10.916Z,22.40
2018-06-16T23:41:39.220Z,22.30
2018-06-16T23:44:07.422Z,22.30
2018-06-16T23:46:35.619Z,22.30
2018-06-16T23:49:04.005Z,22.30
2018-06-16T23:51:32.158Z,22.20
2018-06-16T23:54:00.292Z,22.20
2018-06-16T23:56:28.437Z,22.20
2018-06-16T23:58:56.698Z,22.20
